createdAt,value
2019-05-11T00:00:55.262Z,5.40
2019-05-11T00:03:26.750Z,5.30
2019-05-11T00:05:58.069Z,5.47
2019-05-11T00:08:30.633Z,5.22
2019-05-11T00:11:02.023Z,5.30
2019-05-11T00:13:33.473Z,5.80
2019-05-11T00:16:06.391Z,5.08
2019-05-11T00:18:37.869Z,5.35
2019-05-11T00:21:09.244Z,5.83
2019-05-11T00:23:41.160Z,5.37
2019-05-11T00:26:12.555Z,5.42
2019-05-11T00:28:45.463Z,5.65
2019-05-11T00:31:17.186Z,5.72
2019-05-11T00:33:48.593Z,5.30
2019-05-11T00:36:19.974Z,5.20
2019-05-11T00:38:53.420Z,5.55
2019-05-11T00:41:26.452Z,5.70
2019-05-11T00:43:57.851Z,6.33
2019-05-11T00:46:29.208Z,6.17
2019-05-11T00:49:00.767Z,6.47
2019-05-11T00:51:32.226Z,6.20
2019-05-11T00:54:03.620Z,7.45
2019-05-11T00:56:34.916Z,8.65
2019-05-11T00:59:20.614Z,8.75
2019-05-11T01:01:39.914Z,8.25
2019-05-11T01:04:12.963Z,7.17
2019-05-11T01:06:44.271Z,6.33
2019-05-11T01:09:16.576Z,7.30
2019-05-11T01:11:47.943Z,7.20
2019-05-11T01:14:19.293Z,6.95
2019-05-11T01:16:50.654Z,6.67
2019-05-11T01:19:21.952Z,6.37
2019-05-11T01:21:53.395Z,6.45
2019-05-11T01:24:25.739Z,6.42
2019-05-11T01:26:59.411Z,6.00
2019-05-11T01:29:30.822Z,6.50
2019-05-11T01:32:04.562Z,7.05
2019-05-11T01:34:36.005Z,6.95
2019-05-11T01:37:07.379Z,7.87
2019-05-11T01:39:38.857Z,8.10
2019-05-11T01:42:10.207Z,8.53
2019-05-11T01:44:42.602Z,8.23
2019-05-11T01:47:13.932Z,8.75
2019-05-11T01:49:45.373Z,8.60
2019-05-11T01:52:16.831Z,8.48
2019-05-11T01:54:49.168Z,8.90
2019-05-11T01:57:20.467Z,8.20
2019-05-11T01:59:51.803Z,8.18
2019-05-11T02:02:23.195Z,9.13
2019-05-11T02:05:13.578Z,8.65
2019-05-11T02:07:44.984Z,8.85
2019-05-11T02:10:16.439Z,8.20
2019-05-11T02:12:47.931Z,9.75
2019-05-11T02:15:24.425Z,8.73
2019-05-11T02:17:55.758Z,8.68
2019-05-11T02:20:27.241Z,8.88
2019-05-11T02:22:58.712Z,8.55
2019-05-11T02:25:30.409Z,9.45
2019-05-11T02:28:01.811Z,8.45
2019-05-11T02:30:33.314Z,8.33
2019-05-11T02:33:06.091Z,7.60
2019-05-11T02:35:43.401Z,8.10
2019-05-11T02:38:14.676Z,8.10
2019-05-11T02:40:46.131Z,8.78
2019-05-11T02:43:17.457Z,7.62
2019-05-11T02:45:52.621Z,8.85
2019-05-11T02:48:23.973Z,7.67
2019-05-11T02:50:56.988Z,7.87
2019-05-11T02:53:30.545Z,8.23
2019-05-11T02:56:05.678Z,8.55
2019-05-11T02:58:38.081Z,8.50
2019-05-11T03:01:09.449Z,8.63
2019-05-11T03:03:41.933Z,9.28
2019-05-11T03:06:16.241Z,8.70
2019-05-11T03:08:47.644Z,12.43
2019-05-11T03:11:19.120Z,11.97
2019-05-11T03:13:50.673Z,12.73
2019-05-11T03:16:24.059Z,12.50
2019-05-11T03:18:55.508Z,11.80
2019-05-11T03:21:26.950Z,11.00
2019-05-11T03:23:58.448Z,10.85
2019-05-11T03:26:31.436Z,11.00
2019-05-11T03:29:02.889Z,9.43
2019-05-11T03:31:34.317Z,9.08
2019-05-11T03:34:07.805Z,8.28
2019-05-11T03:36:40.258Z,9.20
2019-05-11T03:39:11.856Z,8.58
2019-05-11T03:41:43.262Z,9.00
2019-05-11T03:44:14.630Z,9.78
2019-05-11T03:46:46.059Z,9.45
2019-05-11T03:49:17.497Z,8.75
2019-05-11T03:51:48.854Z,9.53
2019-05-11T03:54:21.793Z,10.08
2019-05-11T03:56:53.186Z,10.18
2019-05-11T03:59:24.487Z,10.18
2019-05-11T04:01:55.976Z,10.82
2019-05-11T04:04:27.403Z,9.85
2019-05-11T04:07:00.725Z,9.95
2019-05-11T04:09:32.298Z,8.78
2019-05-11T04:12:03.735Z,8.40
2019-05-11T04:14:35.200Z,8.25
2019-05-11T04:17:08.403Z,7.97
2019-05-11T04:19:40.963Z,8.23
2019-05-11T04:22:14.057Z,7.97
2019-05-11T04:24:46.953Z,8.38
2019-05-11T04:27:19.597Z,8.08
2019-05-11T04:29:51.218Z,7.80
2019-05-11T04:32:22.537Z,8.38
2019-05-11T04:34:53.825Z,8.30
2019-05-11T04:37:35.951Z,7.40
2019-05-11T04:40:09.733Z,8.60
2019-05-11T04:42:54.480Z,7.75
2019-05-11T04:45:17.511Z,8.28
2019-05-11T04:47:48.904Z,8.20
2019-05-11T04:50:20.273Z,8.65
2019-05-11T04:52:51.636Z,8.65
2019-05-11T04:55:23.025Z,8.10
2019-05-11T04:57:59.206Z,8.63
2019-05-11T05:00:30.656Z,8.43
2019-05-11T05:03:02.139Z,8.95
2019-05-11T05:05:33.688Z,8.60
2019-05-11T05:08:09.539Z,7.80
2019-05-11T05:10:38.140Z,7.60
2019-05-11T05:13:10.987Z,7.05
2019-05-11T05:15:44.878Z,8.50
2019-05-11T05:18:19.569Z,8.98
2019-05-11T05:20:50.914Z,9.48
2019-05-11T05:23:25.610Z,9.90
2019-05-11T05:25:57.017Z,9.25
2019-05-11T05:28:29.665Z,12.23
2019-05-11T05:31:01.202Z,10.43
2019-05-11T05:33:32.597Z,10.63
2019-05-11T05:36:03.966Z,10.55
2019-05-11T05:38:37.095Z,11.45
2019-05-11T05:41:08.575Z,11.63
2019-05-11T05:43:42.186Z,12.05
2019-05-11T05:46:13.726Z,10.65
2019-05-11T05:48:48.826Z,11.30
2019-05-11T05:51:23.240Z,11.50
2019-05-11T05:53:54.587Z,11.88
2019-05-11T05:56:25.977Z,9.70
2019-05-11T05:58:57.375Z,12.37
2019-05-11T06:01:28.818Z,8.55
2019-05-11T06:04:00.149Z,9.23
2019-05-11T06:06:31.468Z,9.10
2019-05-11T06:09:04.545Z,8.78
2019-05-11T06:11:36.153Z,13.20
2019-05-11T06:14:07.527Z,11.08
2019-05-11T06:16:38.919Z,10.28
2019-05-11T06:19:29.811Z,11.45
2019-05-11T06:22:01.191Z,12.23
2019-05-11T06:24:34.029Z,10.18
2019-05-11T06:27:05.513Z,12.05
2019-05-11T06:29:37.311Z,10.10
2019-05-11T06:32:10.141Z,10.68
2019-05-11T06:34:41.706Z,10.08
2019-05-11T06:37:13.105Z,9.23
2019-05-11T06:39:44.495Z,9.60
2019-05-11T06:42:15.959Z,10.50
2019-05-11T06:44:47.394Z,10.38
2019-05-11T06:47:18.753Z,8.98
2019-05-11T06:49:51.430Z,13.88
2019-05-11T06:52:22.817Z,9.83
2019-05-11T06:54:54.232Z,8.80
2019-05-11T06:57:25.666Z,8.75
2019-05-11T06:59:57.063Z,7.17
2019-05-11T07:02:29.706Z,10.35
2019-05-11T07:05:02.686Z,6.92
2019-05-11T07:07:47.202Z,5.70
2019-05-11T07:10:08.858Z,5.70
2019-05-11T07:12:40.343Z,5.12
2019-05-11T07:15:13.073Z,5.28
2019-05-11T07:17:44.646Z,5.60
2019-05-11T07:20:17.760Z,8.38
2019-05-11T07:22:50.132Z,5.10
2019-05-11T07:25:22.929Z,4.60
2019-05-11T07:27:54.505Z,4.12
2019-05-11T07:30:25.765Z,4.45
2019-05-11T07:32:58.148Z,4.40
2019-05-11T07:35:30.225Z,4.30
2019-05-11T07:38:01.640Z,3.95
2019-05-11T07:40:33.019Z,3.70
2019-05-11T07:43:09.204Z,3.22
2019-05-11T07:45:39.279Z,3.22
2019-05-11T07:48:10.633Z,2.80
2019-05-11T07:50:42.027Z,3.05
2019-05-11T07:53:13.487Z,3.15
2019-05-11T07:55:45.342Z,2.90
2019-05-11T07:58:20.355Z,2.55
2019-05-11T08:00:52.799Z,3.02
2019-05-11T08:03:28.355Z,2.42
2019-05-11T08:06:02.915Z,2.62
2019-05-11T08:08:35.346Z,2.70
2019-05-11T08:11:08.154Z,2.40
2019-05-11T08:13:39.873Z,2.15
2019-05-11T08:16:12.879Z,2.45
2019-05-11T08:18:47.874Z,2.10
2019-05-11T08:21:18.361Z,2.17
2019-05-11T08:23:52.240Z,2.10
2019-05-11T08:26:23.795Z,1.95
2019-05-11T08:28:59.999Z,2.05
2019-05-11T08:31:31.389Z,2.30
2019-05-11T08:34:09.075Z,1.92
2019-05-11T08:36:41.212Z,1.98
2019-05-11T08:39:19.936Z,4.53
2019-05-11T08:41:51.395Z,2.52
2019-05-11T08:44:24.045Z,2.17
2019-05-11T08:46:58.187Z,2.62
2019-05-11T08:49:30.603Z,2.00
2019-05-11T08:52:02.003Z,2.17
2019-05-11T08:54:33.433Z,2.20
2019-05-11T08:57:04.951Z,2.40
2019-05-11T08:59:38.235Z,2.52
2019-05-11T09:02:09.815Z,2.90
2019-05-11T09:04:42.016Z,2.67
2019-05-11T09:07:14.639Z,3.33
2019-05-11T09:09:48.384Z,2.52
2019-05-11T09:12:22.613Z,2.70
2019-05-11T09:14:54.308Z,2.33
2019-05-11T09:17:25.769Z,2.37
2019-05-11T09:19:58.267Z,2.45
2019-05-11T09:22:29.857Z,2.80
2019-05-11T09:25:01.265Z,2.92
2019-05-11T09:27:32.758Z,2.92
2019-05-11T09:30:08.300Z,3.30
2019-05-11T09:32:39.443Z,3.40
2019-05-11T09:35:10.973Z,2.92
2019-05-11T09:37:43.994Z,3.10
2019-05-11T09:40:19.823Z,2.83
2019-05-11T09:42:51.305Z,3.17
2019-05-11T09:45:22.758Z,3.00
2019-05-11T09:47:54.221Z,3.10
2019-05-11T09:50:28.525Z,3.67
2019-05-11T09:52:59.998Z,3.15
2019-05-11T09:55:33.685Z,3.10
2019-05-11T09:58:05.085Z,3.40
2019-05-11T10:00:38.755Z,3.47
2019-05-11T10:03:09.774Z,3.05
2019-05-11T10:05:42.729Z,3.52
2019-05-11T10:08:15.650Z,3.00
2019-05-11T10:10:48.792Z,2.92
2019-05-11T10:13:20.402Z,3.35
2019-05-11T10:16:03.791Z,3.40
2019-05-11T10:18:24.945Z,3.77
2019-05-11T10:20:58.811Z,4.15
2019-05-11T10:23:30.264Z,4.40
2019-05-11T10:26:02.829Z,4.10
2019-05-11T10:28:34.219Z,4.83
2019-05-11T10:31:08.681Z,5.17
2019-05-11T10:33:40.291Z,5.37
2019-05-11T10:36:11.710Z,5.25
2019-05-11T10:38:43.108Z,5.55
2019-05-11T10:41:18.015Z,5.50
2019-05-11T10:43:49.257Z,6.35
2019-05-11T10:46:23.455Z,5.40
2019-05-11T10:48:54.215Z,6.37
2019-05-11T10:51:28.579Z,5.60
2019-05-11T10:53:59.803Z,7.12
2019-05-11T10:56:32.331Z,7.75
2019-05-11T10:59:03.695Z,8.08
2019-05-11T11:01:38.274Z,7.10
2019-05-11T11:04:09.639Z,7.55
2019-05-11T11:06:41.130Z,8.23
2019-05-11T11:09:12.440Z,9.50
2019-05-11T11:11:44.810Z,9.38
2019-05-11T11:14:18.168Z,10.68
2019-05-11T11:16:49.720Z,11.33
2019-05-11T11:19:22.688Z,10.30
2019-05-11T11:21:54.166Z,11.53
2019-05-11T11:24:25.565Z,10.63
2019-05-11T11:26:58.065Z,10.30
2019-05-11T11:29:29.432Z,10.38
2019-05-11T11:32:00.881Z,10.23
2019-05-11T11:34:38.384Z,12.50
2019-05-11T11:37:09.966Z,14.05
2019-05-11T11:39:41.594Z,15.32
2019-05-11T11:42:13.027Z,13.45
2019-05-11T11:44:44.514Z,13.60
2019-05-11T11:47:20.952Z,11.60
2019-05-11T11:49:49.541Z,10.82
2019-05-11T11:52:24.039Z,10.38
2019-05-11T11:54:55.610Z,11.55
2019-05-11T11:57:28.378Z,9.38
2019-05-11T11:59:59.815Z,8.45
2019-05-11T12:02:31.303Z,9.30
2019-05-11T12:05:02.626Z,8.08
2019-05-11T12:07:34.174Z,9.18
2019-05-11T12:10:07.789Z,8.18
2019-05-11T12:12:39.629Z,7.65
2019-05-11T12:15:11.122Z,8.80
2019-05-11T12:17:44.953Z,8.40
2019-05-11T12:20:19.251Z,9.23
2019-05-11T12:22:50.756Z,9.63
2019-05-11T12:25:22.172Z,10.53
2019-05-11T12:27:53.651Z,10.20
2019-05-11T12:30:25.219Z,10.55
2019-05-11T12:32:57.697Z,10.43
2019-05-11T12:35:29.221Z,9.80
2019-05-11T12:38:00.793Z,10.03
2019-05-11T12:40:32.338Z,9.80
2019-05-11T12:43:03.855Z,9.13
2019-05-11T12:45:37.520Z,8.98
2019-05-11T12:48:09.097Z,9.63
2019-05-11T12:50:40.472Z,10.25
2019-05-11T12:53:13.543Z,10.40
2019-05-11T12:55:48.419Z,9.90
2019-05-11T12:58:20.614Z,8.90
2019-05-11T13:00:52.782Z,9.53
2019-05-11T13:03:25.241Z,11.53
2019-05-11T13:05:58.967Z,10.38
2019-05-11T13:08:30.598Z,9.83
2019-05-11T13:11:07.868Z,12.75
2019-05-11T13:13:39.640Z,9.85
2019-05-11T13:16:11.182Z,11.03
2019-05-11T13:18:42.610Z,12.37
2019-05-11T13:21:21.204Z,12.68
2019-05-11T13:23:53.093Z,12.70
2019-05-11T13:26:24.347Z,12.05
2019-05-11T13:28:55.747Z,11.95
2019-05-11T13:31:31.984Z,13.72
2019-05-11T13:34:04.720Z,12.20
2019-05-11T13:36:38.221Z,12.28
2019-05-11T13:39:11.320Z,14.95
2019-05-11T13:41:42.852Z,11.33
2019-05-11T13:44:14.631Z,12.33
2019-05-11T13:46:48.098Z,12.33
2019-05-11T13:49:19.425Z,13.28
2019-05-11T13:51:51.796Z,15.10
2019-05-11T13:54:23.378Z,15.40
2019-05-11T13:56:57.559Z,14.18
2019-05-11T13:59:28.431Z,13.43
2019-05-11T14:01:59.828Z,16.82
2019-05-11T14:04:31.283Z,18.17
2019-05-11T14:07:02.717Z,19.15
2019-05-11T14:09:34.376Z,18.25
2019-05-11T14:12:10.105Z,18.85
2019-05-11T14:14:41.293Z,19.35
2019-05-11T14:17:12.834Z,16.37
2019-05-11T14:19:44.398Z,16.25
2019-05-11T14:22:25.426Z,15.70
2019-05-11T14:24:58.626Z,16.55
2019-05-11T14:27:30.159Z,16.23
2019-05-11T14:30:04.029Z,16.15
2019-05-11T14:32:40.170Z,14.53
2019-05-11T14:35:12.461Z,12.43
2019-05-11T14:37:43.955Z,13.20
2019-05-11T14:40:17.655Z,12.78
2019-05-11T14:42:52.021Z,13.85
2019-05-11T14:45:23.386Z,12.80
2019-05-11T14:47:54.988Z,12.30
2019-05-11T14:50:28.179Z,12.98
2019-05-11T14:53:00.578Z,11.93
2019-05-11T14:55:31.947Z,11.93
2019-05-11T14:58:03.478Z,12.75
2019-05-11T15:00:36.957Z,12.07
2019-05-11T15:03:09.145Z,12.10
2019-05-11T15:05:41.543Z,11.55
2019-05-11T15:08:13.187Z,11.97
2019-05-11T15:10:48.864Z,11.68
2019-05-11T15:13:19.840Z,11.38
2019-05-11T15:15:51.121Z,10.88
2019-05-11T15:18:35.281Z,11.25
2019-05-11T15:20:57.910Z,10.13
2019-05-11T15:23:32.281Z,11.00
2019-05-11T15:26:07.043Z,10.72
2019-05-11T15:28:37.985Z,10.40
2019-05-11T15:31:09.703Z,9.43
2019-05-11T15:33:42.004Z,9.30
2019-05-11T15:36:13.413Z,9.03
2019-05-11T15:38:44.800Z,8.73
2019-05-11T15:41:17.687Z,8.68
2019-05-11T15:43:50.914Z,8.60
2019-05-11T15:46:22.385Z,8.63
2019-05-11T15:49:02.097Z,8.55
2019-05-11T15:51:29.086Z,8.55
2019-05-11T15:54:00.257Z,7.70
2019-05-11T15:56:31.742Z,7.67
2019-05-11T15:59:03.100Z,7.50
2019-05-11T16:01:34.649Z,7.85
2019-05-11T16:04:09.101Z,7.72
2019-05-11T16:06:40.487Z,7.60
2019-05-11T16:09:11.904Z,7.58
2019-05-11T16:11:43.210Z,7.10
2019-05-11T16:14:15.601Z,8.15
2019-05-11T16:16:48.082Z,7.58
2019-05-11T16:19:19.482Z,7.95
2019-05-11T16:21:50.933Z,8.35
2019-05-11T16:24:25.099Z,8.20
2019-05-11T16:26:58.269Z,8.18
2019-05-11T16:29:30.190Z,8.45
2019-05-11T16:32:01.576Z,9.08
2019-05-11T16:34:32.985Z,11.43
2019-05-11T16:37:05.566Z,10.72
2019-05-11T16:39:38.467Z,9.85
2019-05-11T16:42:10.098Z,9.55
2019-05-11T16:44:45.344Z,9.80
2019-05-11T16:47:18.129Z,8.85
2019-05-11T16:49:49.900Z,12.23
2019-05-11T16:52:21.282Z,9.03
2019-05-11T16:54:52.782Z,8.08
2019-05-11T16:57:24.355Z,8.73
2019-05-11T16:59:58.356Z,8.75
2019-05-11T17:02:30.444Z,8.85
2019-05-11T17:05:01.973Z,10.88
2019-05-11T17:07:34.487Z,10.93
2019-05-11T17:10:08.533Z,9.78
2019-05-11T17:12:40.115Z,10.20
2019-05-11T17:15:14.239Z,10.35
2019-05-11T17:17:45.703Z,10.72
2019-05-11T17:20:18.711Z,10.15
2019-05-11T17:22:53.962Z,11.55
2019-05-11T17:25:25.111Z,10.13
2019-05-11T17:27:58.622Z,9.60
2019-05-11T17:30:30.803Z,11.78
2019-05-11T17:33:02.162Z,10.50
2019-05-11T17:35:37.126Z,10.23
2019-05-11T17:38:09.574Z,10.60
2019-05-11T17:40:41.087Z,10.85
2019-05-11T17:43:12.509Z,10.35
2019-05-11T17:45:47.918Z,12.50
2019-05-11T17:48:19.460Z,14.25
2019-05-11T17:50:50.896Z,12.30
2019-05-11T17:53:23.344Z,12.35
2019-05-11T17:55:54.605Z,12.95
2019-05-11T17:58:26.050Z,12.95
2019-05-11T18:00:58.806Z,13.03
2019-05-11T18:03:30.630Z,13.53
2019-05-11T18:06:02.169Z,12.93
2019-05-11T18:08:33.658Z,11.55
2019-05-11T18:11:05.115Z,10.63
2019-05-11T18:13:38.983Z,10.45
2019-05-11T18:16:11.666Z,9.98
2019-05-11T18:18:43.075Z,9.05
2019-05-11T18:21:15.558Z,9.55
2019-05-11T18:23:49.618Z,9.43
2019-05-11T18:26:22.175Z,8.95
2019-05-11T18:28:53.571Z,9.03
2019-05-11T18:31:24.916Z,8.38
2019-05-11T18:33:58.081Z,8.33
2019-05-11T18:36:30.805Z,8.78
2019-05-11T18:39:06.249Z,8.40
2019-05-11T18:41:39.333Z,9.35
2019-05-11T18:44:11.778Z,9.65
2019-05-11T18:46:43.148Z,9.58
2019-05-11T18:49:14.646Z,12.40
2019-05-11T18:51:48.244Z,10.13
2019-05-11T18:54:19.325Z,12.18
2019-05-11T18:56:50.744Z,11.10
2019-05-11T18:59:22.035Z,11.65
2019-05-11T19:01:53.494Z,12.13
2019-05-11T19:04:24.966Z,12.65
2019-05-11T19:06:56.497Z,12.55
2019-05-11T19:09:28.462Z,13.48
2019-05-11T19:12:00.049Z,13.15
2019-05-11T19:14:35.127Z,13.48
2019-05-11T19:17:07.712Z,14.00
2019-05-11T19:19:39.381Z,13.10
2019-05-11T19:22:10.730Z,14.07
2019-05-11T19:24:44.224Z,13.70
2019-05-11T19:27:18.417Z,13.08
2019-05-11T19:29:49.128Z,13.95
2019-05-11T19:32:20.564Z,13.83
2019-05-11T19:34:58.103Z,13.90
2019-05-11T19:37:29.676Z,14.07
2019-05-11T19:40:01.083Z,13.60
2019-05-11T19:42:32.492Z,14.28
2019-05-11T19:45:08.549Z,16.32
2019-05-11T19:47:39.954Z,15.32
2019-05-11T19:50:11.384Z,13.60
2019-05-11T19:52:42.846Z,13.68
2019-05-11T19:55:14.379Z,12.78
2019-05-11T19:57:48.019Z,13.18
2019-05-11T20:00:20.650Z,13.25
2019-05-11T20:02:52.214Z,13.43
2019-05-11T20:05:24.650Z,13.13
2019-05-11T20:07:58.197Z,12.13
2019-05-11T20:10:29.206Z,12.65
2019-05-11T20:13:00.813Z,13.13
2019-05-11T20:15:33.478Z,11.83
2019-05-11T20:18:05.060Z,11.73
2019-05-11T20:20:37.675Z,11.70
2019-05-11T20:23:09.180Z,13.22
2019-05-11T20:25:40.518Z,12.43
2019-05-11T20:28:11.808Z,12.95
2019-05-11T20:30:43.327Z,12.90
2019-05-11T20:33:14.694Z,12.35
2019-05-11T20:35:46.117Z,13.18
2019-05-11T20:38:19.521Z,12.40
2019-05-11T20:40:50.998Z,12.63
2019-05-11T20:43:22.554Z,12.88
2019-05-11T20:45:56.220Z,14.00
2019-05-11T20:48:27.822Z,13.80
2019-05-11T20:50:59.316Z,13.35
2019-05-11T20:53:32.230Z,13.72
2019-05-11T20:56:10.510Z,14.70
2019-05-11T20:58:58.790Z,15.30
2019-05-11T21:01:31.117Z,14.38
2019-05-11T21:04:02.593Z,14.78
2019-05-11T21:06:35.551Z,14.10
2019-05-11T21:09:07.822Z,14.68
2019-05-11T21:11:40.321Z,15.38
2019-05-11T21:14:12.126Z,14.87
2019-05-11T21:16:43.474Z,15.05
2019-05-11T21:19:15.011Z,14.85
2019-05-11T21:21:52.819Z,15.83
2019-05-11T21:24:19.521Z,15.45
2019-05-11T21:26:50.879Z,15.08
2019-05-11T21:29:22.134Z,14.95
2019-05-11T21:31:53.564Z,14.78
2019-05-11T21:34:27.916Z,14.93
2019-05-11T21:36:59.721Z,13.70
2019-05-11T21:39:31.109Z,15.05
2019-05-11T21:42:02.621Z,14.65
2019-05-11T21:44:35.613Z,15.13
2019-05-11T21:47:07.711Z,15.75
2019-05-11T21:49:39.350Z,15.65
2019-05-11T21:52:10.889Z,16.55
2019-05-11T21:54:43.378Z,15.45
2019-05-11T21:57:21.768Z,16.97
2019-05-11T21:59:53.338Z,16.52
2019-05-11T22:02:25.100Z,16.90
2019-05-11T22:04:58.597Z,17.92
2019-05-11T22:07:31.865Z,17.95
2019-05-11T22:10:04.706Z,19.32
2019-05-11T22:12:38.346Z,19.75
2019-05-11T22:15:10.684Z,19.90
2019-05-11T22:17:42.178Z,19.77
2019-05-11T22:20:13.729Z,19.73
2019-05-11T22:22:47.503Z,20.23
2019-05-11T22:25:18.572Z,21.60
2019-05-11T22:27:51.042Z,22.07
2019-05-11T22:30:22.465Z,23.02
2019-05-11T22:32:53.792Z,25.97
2019-05-11T22:35:25.270Z,28.25
2019-05-11T22:37:58.651Z,31.12
2019-05-11T22:40:31.520Z,33.67
2019-05-11T22:43:02.910Z,32.50
2019-05-11T22:45:34.413Z,32.38
2019-05-11T22:48:10.230Z,33.00
2019-05-11T22:50:43.694Z,31.20
2019-05-11T22:53:14.602Z,32.58
2019-05-11T22:55:45.965Z,31.27
2019-05-11T22:58:17.912Z,31.50
2019-05-11T23:00:49.431Z,32.17
2019-05-11T23:03:22.804Z,31.85
2019-05-11T23:05:53.866Z,31.65
2019-05-11T23:08:25.246Z,31.97
2019-05-11T23:10:56.633Z,31.73
2019-05-11T23:13:28.063Z,31.48
2019-05-11T23:15:59.620Z,31.97
2019-05-11T23:18:31.044Z,32.50
2019-05-11T23:21:02.513Z,31.65
2019-05-11T23:23:33.897Z,31.75
2019-05-11T23:26:05.395Z,33.28
2019-05-11T23:28:37.874Z,32.95
2019-05-11T23:31:09.492Z,31.37
2019-05-11T23:33:40.835Z,31.35
2019-05-11T23:36:12.273Z,30.23
2019-05-11T23:38:44.621Z,30.72
2019-05-11T23:41:24.114Z,31.57
2019-05-11T23:43:49.173Z,30.12
2019-05-11T23:46:20.670Z,29.75
2019-05-11T23:48:54.194Z,30.60
2019-05-11T23:51:28.313Z,29.20
2019-05-11T23:53:59.846Z,28.95
2019-05-11T23:56:31.338Z,28.47
2019-05-11T23:59:03.675Z,27.62
